Time;durP1;ratioP1;P1;durP2;ratioP2;P2;SDS_P1;SDS_P2;PMS_P1;PMS_P2;Temp;Humidity;BMP_temperature;BMP_pressure;BME280_temperature;BME280_humidity;BME280_pressure;Samples;Min_cycle;Max_cycle;Signal;HPM_P1;HPM_P2
2021/11/26 00:02:19;;;;;;;;;;;-0.40;99.90;;;;;;5050658;28;19909;-75
2021/11/26 00:04:45;;;;;;;;;;;-0.40;99.90;;;;;;5049935;28;20484;-75
2021/11/26 00:07:11;;;;;;;;;;;-0.40;99.90;;;;;;5050596;28;19912;-76
2021/11/26 00:09:36;;;;;;;;;;;-0.50;99.90;;;;;;5050504;28;19909;-76
2021/11/26 00:12:02;;;;;;;;;;;-0.40;99.90;;;;;;5050528;28;20357;-76
2021/11/26 00:14:31;;;;;;;;;;;-0.40;99.90;;;;;;5050392;28;19913;-76
2021/11/26 00:16:58;;;;;;;;;;;-0.40;99.90;;;;;;5049389;28;19909;-75
2021/11/26 00:19:24;;;;;;;;;;;-0.40;99.90;;;;;;5050398;28;20383;-76
2021/11/26 00:21:49;;;;;;;;;;;-0.30;99.90;;;;;;5050242;28;19948;-76
2021/11/26 00:24:17;;;;;;;;;;;-0.30;99.90;;;;;;5049876;28;19952;-74
2021/11/26 00:26:43;;;;;;;;;;;-0.30;99.90;;;;;;5050364;28;19920;-76
2021/11/26 00:29:08;;;;;;;;;;;-0.30;99.90;;;;;;5050525;28;19962;-76
2021/11/26 00:31:34;;;;;;;;;;;-0.40;99.90;;;;;;5050538;28;19909;-76
2021/11/26 00:33:59;;;;;;;;;;;-0.40;99.90;;;;;;5050178;28;19909;-76
2021/11/26 00:36:25;;;;;;;;;;;-0.50;99.90;;;;;;5050147;28;19909;-75
2021/11/26 00:38:51;;;;;;;;;;;-0.40;99.90;;;;;;5050549;28;19909;-76
2021/11/26 00:41:16;;;;;;;;;;;-0.40;99.90;;;;;;5050145;28;20293;-76
2021/11/26 00:43:43;;;;;;;;;;;-0.40;99.90;;;;;;5046368;28;20304;-76
2021/11/26 00:46:09;;;;;;;;;;;-0.40;99.90;;;;;;5054305;28;19920;-76
2021/11/26 00:48:35;;;;;;;;;;;-0.30;99.90;;;;;;5054118;28;19909;-76
2021/11/26 00:51:01;;;;;;;;;;;-0.40;99.90;;;;;;5054088;28;19963;-76
2021/11/26 00:53:26;;;;;;;;;;;-0.40;99.90;;;;;;5053341;28;20278;-76
2021/11/26 00:55:52;;;;;;;;;;;-0.40;99.90;;;;;;5053537;28;20472;-75
2021/11/26 00:58:17;;;;;;;;;;;-0.40;99.90;;;;;;5053901;28;19963;-76
2021/11/26 01:00:42;;;;;;;;;;;-0.30;99.90;;;;;;5053845;28;19909;-76
2021/11/26 01:03:08;;;;;;;;;;;-0.30;99.90;;;;;;5053366;28;19909;-76
2021/11/26 01:05:34;;;;;;;;;;;-0.40;99.90;;;;;;5053546;28;19952;-76
2021/11/26 01:07:59;;;;;;;;;;;-0.30;99.90;;;;;;5053632;28;20217;-76
2021/11/26 01:10:25;;;;;;;;;;;-0.40;99.90;;;;;;5053411;28;19908;-76
2021/11/26 01:12:51;;;;;;;;;;;-0.40;99.90;;;;;;5052414;28;19916;-76
2021/11/26 01:15:18;;;;;;;;;;;-0.30;99.90;;;;;;5053335;28;19909;-76
2021/11/26 01:17:44;;;;;;;;;;;-0.40;99.90;;;;;;5053634;28;19909;-75
2021/11/26 01:20:12;;;;;;;;;;;-0.30;99.90;;;;;;5053412;28;20385;-74
2021/11/26 01:22:37;;;;;;;;;;;-0.30;99.90;;;;;;5052938;28;19913;-76
2021/11/26 01:25:04;;;;;;;;;;;-0.30;99.90;;;;;;5051467;28;19913;-76
2021/11/26 01:27:30;;;;;;;;;;;-0.30;99.90;;;;;;5053200;28;19920;-76
2021/11/26 01:29:55;;;;;;;;;;;-0.30;99.90;;;;;;5053412;28;19916;-76
2021/11/26 01:32:21;;;;;;;;;;;-0.30;99.90;;;;;;5053067;28;20273;-76
2021/11/26 01:34:46;;;;;;;;;;;-0.30;99.90;;;;;;5052709;28;19909;-76
2021/11/26 01:37:12;;;;;;;;;;;-0.30;99.90;;;;;;5053156;28;20266;-76
2021/11/26 01:39:37;;;;;;;;;;;-0.30;99.90;;;;;;5052986;28;19920;-76
2021/11/26 01:42:03;;;;;;;;;;;-0.40;99.90;;;;;;5052931;28;19909;-75
2021/11/26 01:44:28;;;;;;;;;;;-0.50;99.90;;;;;;5052658;28;19936;-76
2021/11/26 01:46:54;;;;;;;;;;;-0.50;99.90;;;;;;5052936;28;19913;-76
2021/11/26 01:49:19;;;;;;;;;;;-0.50;99.90;;;;;;5052889;28;19909;-76
2021/11/26 01:51:45;;;;;;;;;;;-0.50;99.90;;;;;;5052977;28;19909;-76
2021/11/26 01:54:10;;;;;;;;;;;-0.40;99.90;;;;;;5051851;28;19909;-76
2021/11/26 01:56:36;;;;;;;;;;;-0.50;99.90;;;;;;5051516;28;19931;-76
2021/11/26 01:59:02;;;;;;;;;;;-0.40;99.90;;;;;;5052829;28;20018;-76
2021/11/26 02:01:27;;;;;;;;;;;-0.30;99.90;;;;;;5046019;28;19909;-76
2021/11/26 02:03:53;;;;;;;;;;;-0.30;99.90;;;;;;5052378;28;19913;-76
2021/11/26 02:06:18;;;;;;;;;;;-0.40;99.90;;;;;;5052388;28;19913;-76
2021/11/26 02:08:44;;;;;;;;;;;-0.40;99.90;;;;;;5052428;28;19941;-76
2021/11/26 02:11:10;;;;;;;;;;;-0.40;99.90;;;;;;5052390;28;19909;-76
2021/11/26 02:13:35;;;;;;;;;;;-0.40;99.90;;;;;;5052049;28;19909;-76
2021/11/26 02:16:02;;;;;;;;;;;-0.30;99.90;;;;;;5052376;28;19909;-76
2021/11/26 02:18:28;;;;;;;;;;;-0.30;99.90;;;;;;5052347;28;19962;-75
2021/11/26 02:20:53;;;;;;;;;;;-0.40;99.90;;;;;;5052047;28;19913;-76
2021/11/26 02:23:19;;;;;;;;;;;-0.30;99.90;;;;;;5051485;28;20002;-76
2021/11/26 02:25:45;;;;;;;;;;;-0.40;99.90;;;;;;5052067;28;20379;-76
2021/11/26 02:28:12;;;;;;;;;;;-0.40;99.90;;;;;;5052228;28;19916;-76
2021/11/26 02:30:37;;;;;;;;;;;-0.40;99.90;;;;;;5052006;28;19909;-76
2021/11/26 02:33:11;;;;;;;;;;;-0.40;99.90;;;;;;5051732;28;20399;-76
2021/11/26 02:35:37;;;;;;;;;;;-0.40;99.90;;;;;;5051751;28;20376;-75
2021/11/26 02:38:04;;;;;;;;;;;-0.30;99.90;;;;;;5051902;28;20320;-76
2021/11/26 02:40:30;;;;;;;;;;;-0.30;99.90;;;;;;5050177;28;19913;-76
2021/11/26 02:42:56;;;;;;;;;;;-0.30;99.90;;;;;;5051755;28;19916;-75
2021/11/26 02:45:22;;;;;;;;;;;-0.30;99.90;;;;;;5051780;28;19909;-76
2021/11/26 02:47:48;;;;;;;;;;;-0.30;99.90;;;;;;5051844;28;20380;-76
2021/11/26 02:50:15;;;;;;;;;;;-0.40;99.90;;;;;;5051678;28;19909;-76
2021/11/26 02:52:42;;;;;;;;;;;-0.50;99.90;;;;;;5050873;28;20312;-75
2021/11/26 02:55:09;;;;;;;;;;;-0.50;99.90;;;;;;5048462;28;19909;-75
2021/11/26 02:57:34;;;;;;;;;;;-0.60;99.90;;;;;;5051520;28;19909;-76
2021/11/26 03:00:00;;;;;;;;;;;-0.50;99.90;;;;;;5051604;28;20331;-76
2021/11/26 03:02:25;;;;;;;;;;;-0.50;99.90;;;;;;5051543;28;20426;-76
2021/11/26 03:04:51;;;;;;;;;;;-0.40;99.90;;;;;;5050490;28;19912;-75
2021/11/26 03:07:16;;;;;;;;;;;-0.40;99.90;;;;;;5051565;28;19920;-76
2021/11/26 03:09:42;;;;;;;;;;;-0.40;99.90;;;;;;5051487;28;19920;-75
2021/11/26 03:12:08;;;;;;;;;;;-0.40;99.90;;;;;;5051336;28;19955;-76
2021/11/26 03:14:34;;;;;;;;;;;-0.30;99.90;;;;;;5050998;28;19909;-76
2021/11/26 03:17:00;;;;;;;;;;;-0.30;99.90;;;;;;5051337;28;20327;-76
2021/11/26 03:19:25;;;;;;;;;;;-0.30;99.90;;;;;;5050802;28;19909;-76
2021/11/26 03:21:51;;;;;;;;;;;-0.30;99.90;;;;;;5048692;28;19913;-76
2021/11/26 03:24:17;;;;;;;;;;;-0.30;99.90;;;;;;5050753;28;19954;-76
2021/11/26 03:26:42;;;;;;;;;;;-0.40;99.90;;;;;;5049869;28;20380;-76
2021/11/26 03:29:08;;;;;;;;;;;-0.30;99.90;;;;;;5051325;28;20400;-76
2021/11/26 03:31:33;;;;;;;;;;;-0.30;99.90;;;;;;5050239;28;19948;-75
2021/11/26 03:33:59;;;;;;;;;;;-0.40;99.90;;;;;;5047911;28;20265;-75
2021/11/26 03:36:24;;;;;;;;;;;-0.30;99.90;;;;;;5047981;28;19912;-75
2021/11/26 03:38:50;;;;;;;;;;;-0.30;99.90;;;;;;5047862;28;20392;-76
2021/11/26 03:41:15;;;;;;;;;;;-0.40;99.90;;;;;;5047997;28;20023;-75
2021/11/26 03:43:41;;;;;;;;;;;-0.40;99.90;;;;;;5046633;28;19916;-76
2021/11/26 03:46:06;;;;;;;;;;;-0.40;99.90;;;;;;5048732;28;19924;-75
2021/11/26 03:48:32;;;;;;;;;;;-0.40;99.90;;;;;;5047617;28;19913;-74
2021/11/26 03:50:58;;;;;;;;;;;-0.40;99.90;;;;;;5050781;28;20361;-76
2021/11/26 03:53:23;;;;;;;;;;;-0.40;99.90;;;;;;5050318;28;20043;-76
2021/11/26 03:55:49;;;;;;;;;;;-0.40;99.90;;;;;;5050771;28;19912;-76
2021/11/26 03:58:14;;;;;;;;;;;-0.40;99.90;;;;;;5050952;28;20369;-76
2021/11/26 04:00:40;;;;;;;;;;;-0.40;99.90;;;;;;5050754;28;19976;-76
2021/11/26 04:03:06;;;;;;;;;;;-0.40;99.90;;;;;;5050525;28;19916;-76
2021/11/26 04:05:31;;;;;;;;;;;-0.40;99.90;;;;;;5050775;28;19913;-76
2021/11/26 04:07:58;;;;;;;;;;;-0.40;99.90;;;;;;5050899;28;19967;-76
2021/11/26 04:10:23;;;;;;;;;;;-0.40;99.90;;;;;;5049456;28;19944;-76
2021/11/26 04:12:50;;;;;;;;;;;-0.40;99.90;;;;;;5050648;28;19928;-76
2021/11/26 04:15:16;;;;;;;;;;;-0.40;99.90;;;;;;5049104;28;19913;-76
2021/11/26 04:17:44;;;;;;;;;;;-0.50;99.90;;;;;;5053421;28;19909;-75
2021/11/26 04:20:11;;;;;;;;;;;-0.50;99.90;;;;;;5054444;28;20007;-76
2021/11/26 04:22:36;;;;;;;;;;;-0.40;99.90;;;;;;5054132;28;20383;-76
2021/11/26 04:25:02;;;;;;;;;;;-0.40;99.90;;;;;;5053920;28;20000;-76
2021/11/26 04:27:28;;;;;;;;;;;-0.40;99.90;;;;;;5054262;28;19939;-76
2021/11/26 04:29:53;;;;;;;;;;;-0.40;99.90;;;;;;5054364;28;19908;-76
2021/11/26 04:32:19;;;;;;;;;;;-0.40;99.90;;;;;;5054100;28;20288;-76
2021/11/26 04:34:44;;;;;;;;;;;-0.40;99.90;;;;;;5052555;28;19916;-76
2021/11/26 04:37:10;;;;;;;;;;;-0.40;99.90;;;;;;5054283;28;20003;-76
2021/11/26 04:39:35;;;;;;;;;;;-0.30;99.90;;;;;;5054075;28;19940;-76
2021/11/26 04:42:01;;;;;;;;;;;-0.30;99.90;;;;;;5054324;28;19916;-75
2021/11/26 04:44:26;;;;;;;;;;;-0.40;99.90;;;;;;5053775;28;20254;-75
2021/11/26 04:46:52;;;;;;;;;;;-0.50;99.90;;;;;;5053864;28;19916;-75
2021/11/26 04:49:17;;;;;;;;;;;-0.60;99.90;;;;;;5053950;28;19952;-75
2021/11/26 04:51:43;;;;;;;;;;;-0.70;99.90;;;;;;5053607;28;19970;-75
2021/11/26 04:54:08;;;;;;;;;;;-0.60;99.90;;;;;;5053324;28;19920;-75
2021/11/26 04:56:34;;;;;;;;;;;-0.60;99.90;;;;;;5053772;28;19915;-75
2021/11/26 04:59:00;;;;;;;;;;;-0.60;99.90;;;;;;5053937;28;20000;-74
2021/11/26 05:01:26;;;;;;;;;;;-0.60;99.90;;;;;;5053618;28;19912;-75
2021/11/26 05:03:52;;;;;;;;;;;-0.50;99.90;;;;;;5052007;28;19909;-75
2021/11/26 05:06:17;;;;;;;;;;;-0.50;99.90;;;;;;5053749;28;19995;-75
2021/11/26 05:08:43;;;;;;;;;;;-0.40;99.90;;;;;;5052677;28;19909;-75
2021/11/26 05:11:09;;;;;;;;;;;-0.40;99.90;;;;;;5053548;28;19957;-75
2021/11/26 05:13:41;;;;;;;;;;;-0.50;99.90;;;;;;5051883;28;20384;-75
2021/11/26 05:16:06;;;;;;;;;;;-0.50;99.90;;;;;;5053508;28;20376;-75
2021/11/26 05:18:32;;;;;;;;;;;-0.30;99.90;;;;;;5053579;28;19913;-76
2021/11/26 05:20:57;;;;;;;;;;;-0.50;99.90;;;;;;5053314;28;19909;-75
2021/11/26 05:23:23;;;;;;;;;;;-0.50;99.90;;;;;;5052761;28;19908;-75
2021/11/26 05:25:49;;;;;;;;;;;-0.50;99.90;;;;;;5053319;28;20324;-75
2021/11/26 05:28:15;;;;;;;;;;;-0.60;99.90;;;;;;5052557;28;19917;-75
2021/11/26 05:30:41;;;;;;;;;;;-0.60;99.90;;;;;;5052957;28;19909;-74
2021/11/26 05:33:07;;;;;;;;;;;-0.60;99.90;;;;;;5052855;28;19909;-75
2021/11/26 05:35:33;;;;;;;;;;;-0.50;99.90;;;;;;5054606;28;19909;-75
2021/11/26 05:37:58;;;;;;;;;;;-0.50;99.90;;;;;;5057273;28;19962;-75
2021/11/26 05:40:24;;;;;;;;;;;-0.40;99.90;;;;;;5054595;28;19916;-75
2021/11/26 05:42:50;;;;;;;;;;;-0.30;99.90;;;;;;5052963;28;19913;-75
2021/11/26 05:45:16;;;;;;;;;;;-0.30;99.90;;;;;;5052413;28;19908;-75
2021/11/26 05:47:42;;;;;;;;;;;-0.30;99.90;;;;;;5052813;28;20335;-75
2021/11/26 05:50:09;;;;;;;;;;;-0.40;99.90;;;;;;5052944;28;19999;-75
2021/11/26 05:52:35;;;;;;;;;;;-0.40;99.90;;;;;;5052721;28;19908;-75
2021/11/26 05:55:00;;;;;;;;;;;-0.30;99.90;;;;;;5047658;28;19909;-75
2021/11/26 05:57:26;;;;;;;;;;;-0.40;99.90;;;;;;5052778;28;19934;-75
2021/11/26 05:59:51;;;;;;;;;;;-0.30;99.90;;;;;;5052533;28;19999;-74
2021/11/26 06:02:17;;;;;;;;;;;-0.30;99.90;;;;;;5052792;28;19919;-75
2021/11/26 06:04:43;;;;;;;;;;;-0.40;99.90;;;;;;5052284;28;19908;-75
2021/11/26 06:07:09;;;;;;;;;;;-0.30;99.90;;;;;;5052513;28;19913;-75
2021/11/26 06:09:35;;;;;;;;;;;-0.30;99.90;;;;;;5052518;28;19909;-75
2021/11/26 06:12:00;;;;;;;;;;;-0.30;99.90;;;;;;5052422;28;19920;-75
2021/11/26 06:14:26;;;;;;;;;;;-0.30;99.90;;;;;;5052769;28;19913;-75
2021/11/26 06:16:51;;;;;;;;;;;-0.30;99.90;;;;;;5053721;28;19955;-75
2021/11/26 06:19:17;;;;;;;;;;;-0.30;99.90;;;;;;5053830;28;20004;-75
2021/11/26 06:21:42;;;;;;;;;;;-0.30;99.90;;;;;;5053687;28;19978;-75
2021/11/26 06:24:08;;;;;;;;;;;-0.30;99.90;;;;;;5053163;28;19916;-74
2021/11/26 06:26:33;;;;;;;;;;;-0.40;99.90;;;;;;5053919;28;19920;-75
2021/11/26 06:28:59;;;;;;;;;;;-0.40;99.90;;;;;;5054084;28;20393;-75
2021/11/26 06:31:24;;;;;;;;;;;-0.50;99.90;;;;;;5054527;28;20683;-75
2021/11/26 06:33:50;;;;;;;;;;;-0.50;99.90;;;;;;5053241;28;19912;-74
2021/11/26 06:36:15;;;;;;;;;;;-0.50;99.90;;;;;;5053668;28;19908;-75
2021/11/26 06:38:41;;;;;;;;;;;-0.50;99.90;;;;;;5053480;28;19908;-75
2021/11/26 06:41:06;;;;;;;;;;;-0.60;99.90;;;;;;5052502;28;19909;-75
2021/11/26 06:43:32;;;;;;;;;;;-0.60;99.90;;;;;;5052827;28;20007;-75
2021/11/26 06:45:57;;;;;;;;;;;-0.60;99.90;;;;;;5053434;28;19909;-75
2021/11/26 06:48:25;;;;;;;;;;;-0.60;99.90;;;;;;5053255;28;20011;-75
2021/11/26 06:50:51;;;;;;;;;;;-0.60;99.90;;;;;;5052910;28;19909;-75
2021/11/26 06:53:16;;;;;;;;;;;-0.50;99.90;;;;;;5052399;28;19980;-73
2021/11/26 06:55:42;;;;;;;;;;;-0.50;99.90;;;;;;5050632;28;19958;-75
2021/11/26 06:58:07;;;;;;;;;;;-0.50;99.90;;;;;;5052937;28;19909;-75
2021/11/26 07:00:33;;;;;;;;;;;-0.40;99.90;;;;;;5052831;28;20059;-75
2021/11/26 07:02:59;;;;;;;;;;;-0.30;99.90;;;;;;5052337;28;19916;-75
2021/11/26 07:05:24;;;;;;;;;;;-0.30;99.90;;;;;;5052521;28;20015;-75
2021/11/26 07:07:50;;;;;;;;;;;-0.30;99.90;;;;;;5053461;28;19913;-76
2021/11/26 07:10:16;;;;;;;;;;;-0.30;99.90;;;;;;5053566;28;19909;-75
2021/11/26 07:12:42;;;;;;;;;;;-0.30;99.90;;;;;;5053433;28;20332;-75
2021/11/26 07:15:08;;;;;;;;;;;-0.40;99.90;;;;;;5052906;28;20261;-75
2021/11/26 07:17:34;;;;;;;;;;;-0.50;99.90;;;;;;5053802;28;20349;-75
2021/11/26 07:19:59;;;;;;;;;;;-0.50;99.90;;;;;;5053491;28;19913;-75
2021/11/26 07:22:25;;;;;;;;;;;-0.50;99.90;;;;;;5052883;28;19909;-74
2021/11/26 07:24:51;;;;;;;;;;;-0.40;99.90;;;;;;5052510;28;19909;-75
2021/11/26 07:27:16;;;;;;;;;;;-0.30;99.90;;;;;;5052791;28;19943;-75
2021/11/26 07:29:42;;;;;;;;;;;-0.30;99.90;;;;;;5053142;28;19913;-75
2021/11/26 07:32:07;;;;;;;;;;;-0.20;99.90;;;;;;5053077;28;19912;-73
2021/11/26 07:34:33;;;;;;;;;;;-0.20;99.90;;;;;;5051162;28;20011;-75
2021/11/26 07:36:59;;;;;;;;;;;-0.20;99.90;;;;;;5053153;28;19909;-75
2021/11/26 07:39:31;;;;;;;;;;;-0.30;99.90;;;;;;5052982;28;19924;-75
2021/11/26 07:41:57;;;;;;;;;;;-0.30;99.90;;;;;;5052737;28;19928;-75
2021/11/26 07:44:22;;;;;;;;;;;-0.20;99.90;;;;;;5052526;28;19909;-75
2021/11/26 07:46:48;;;;;;;;;;;-0.20;99.90;;;;;;5052879;28;19913;-73
2021/11/26 07:49:13;;;;;;;;;;;-0.30;99.90;;;;;;5052989;28;19923;-75
2021/11/26 07:51:39;;;;;;;;;;;-0.30;99.90;;;;;;5053552;28;20282;-75
2021/11/26 07:54:04;;;;;;;;;;;-0.30;99.90;;;;;;5054902;28;19909;-75
2021/11/26 07:56:30;;;;;;;;;;;-0.20;99.90;;;;;;5057053;28;19909;-75
2021/11/26 07:58:55;;;;;;;;;;;-0.10;99.90;;;;;;5056002;28;19909;-75
2021/11/26 08:01:21;;;;;;;;;;;-0.10;99.90;;;;;;5056775;28;19908;-75
2021/11/26 08:03:46;;;;;;;;;;;-0.10;99.90;;;;;;5056215;28;19990;-74
2021/11/26 08:06:12;;;;;;;;;;;-0.10;99.90;;;;;;5056689;28;20327;-76
2021/11/26 08:08:38;;;;;;;;;;;-0.10;99.90;;;;;;5054136;28;19912;-75
2021/11/26 08:11:04;;;;;;;;;;;-0.20;99.90;;;;;;5054410;28;20007;-76
2021/11/26 08:13:29;;;;;;;;;;;-0.10;99.90;;;;;;5052489;28;20638;-75
2021/11/26 08:15:55;;;;;;;;;;;-0.20;99.90;;;;;;5052247;28;19920;-74
2021/11/26 08:18:20;;;;;;;;;;;-0.10;99.90;;;;;;5056864;28;19908;-76
2021/11/26 08:20:46;;;;;;;;;;;-0.10;99.90;;;;;;5056592;28;19974;-76
2021/11/26 08:23:11;;;;;;;;;;;0.00;99.90;;;;;;5055536;28;20357;-76
2021/11/26 08:25:38;;;;;;;;;;;0.10;99.90;;;;;;5055922;28;19909;-75
2021/11/26 08:28:04;;;;;;;;;;;0.20;99.90;;;;;;5054751;28;19917;-75
2021/11/26 08:30:30;;;;;;;;;;;0.20;99.90;;;;;;5055725;28;20412;-76
2021/11/26 08:32:55;;;;;;;;;;;0.30;99.90;;;;;;5054679;28;19909;-75
2021/11/26 08:35:21;;;;;;;;;;;0.30;99.90;;;;;;5055843;28;19958;-76
2021/11/26 08:37:47;;;;;;;;;;;0.20;99.90;;;;;;5048946;28;19927;-74
2021/11/26 08:40:14;;;;;;;;;;;0.30;99.90;;;;;;5055505;28;19913;-74
2021/11/26 08:42:40;;;;;;;;;;;0.30;99.90;;;;;;5054646;28;19995;-75
2021/11/26 08:45:05;;;;;;;;;;;0.40;99.90;;;;;;5054709;28;19952;-73
2021/11/26 08:47:31;;;;;;;;;;;0.50;99.90;;;;;;5054684;28;19919;-75
2021/11/26 08:49:56;;;;;;;;;;;0.40;99.90;;;;;;5055983;28;19948;-74
2021/11/26 08:52:23;;;;;;;;;;;0.30;99.90;;;;;;5055861;28;19955;-74
2021/11/26 08:54:49;;;;;;;;;;;0.30;99.90;;;;;;5055049;28;19912;-75
2021/11/26 08:57:17;;;;;;;;;;;0.60;99.90;;;;;;5055565;28;19916;-74
2021/11/26 08:59:42;;;;;;;;;;;0.70;99.90;;;;;;5056282;28;19975;-75
2021/11/26 09:02:08;;;;;;;;;;;0.80;99.90;;;;;;5049236;28;19909;-74
2021/11/26 09:04:34;;;;;;;;;;;1.00;99.90;;;;;;5053710;28;19916;-74
2021/11/26 09:06:59;;;;;;;;;;;0.90;99.90;;;;;;5055840;28;20411;-74
2021/11/26 09:09:25;;;;;;;;;;;0.90;99.90;;;;;;5055478;28;20173;-75
2021/11/26 09:11:51;;;;;;;;;;;1.10;99.90;;;;;;5055216;28;20387;-75
2021/11/26 09:14:17;;;;;;;;;;;1.10;99.90;;;;;;5055565;28;19908;-75
2021/11/26 09:16:42;;;;;;;;;;;1.20;99.90;;;;;;5055622;28;19913;-74
2021/11/26 09:19:08;;;;;;;;;;;1.30;99.90;;;;;;5055281;28;19912;-75
2021/11/26 09:21:33;;;;;;;;;;;0.90;99.90;;;;;;5054995;28;19923;-75
2021/11/26 09:23:59;;;;;;;;;;;1.10;99.90;;;;;;5054597;28;19974;-74
2021/11/26 09:26:25;;;;;;;;;;;1.00;99.90;;;;;;5054889;28;20288;-75
2021/11/26 09:28:51;;;;;;;;;;;1.20;99.90;;;;;;5055165;28;19908;-74
2021/11/26 09:31:16;;;;;;;;;;;1.30;99.90;;;;;;5055025;28;20280;-74
2021/11/26 09:33:42;;;;;;;;;;;1.40;99.90;;;;;;5053582;28;19912;-75
2021/11/26 09:36:09;;;;;;;;;;;1.20;99.90;;;;;;5053665;28;19913;-75
2021/11/26 09:38:35;;;;;;;;;;;1.20;99.90;;;;;;5047920;28;19909;-74
2021/11/26 09:41:01;;;;;;;;;;;1.30;99.90;;;;;;5048408;28;20288;-74
2021/11/26 09:43:27;;;;;;;;;;;1.20;99.90;;;;;;5054669;28;20365;-74
2021/11/26 09:45:53;;;;;;;;;;;1.20;99.90;;;;;;5054059;28;19931;-74
2021/11/26 09:48:18;;;;;;;;;;;1.40;99.90;;;;;;5054842;28;19944;-75
2021/11/26 09:50:44;;;;;;;;;;;1.20;99.90;;;;;;5054579;28;19924;-75
2021/11/26 09:53:21;;;;;;;;;;;1.40;99.90;;;;;;5053698;28;19927;-75
2021/11/26 09:55:51;;;;;;;;;;;1.50;99.90;;;;;;5053109;28;19919;-75
2021/11/26 09:58:17;;;;;;;;;;;1.60;99.90;;;;;;5054572;28;19909;-75
2021/11/26 10:00:42;;;;;;;;;;;1.40;99.90;;;;;;5053937;28;19924;-75
2021/11/26 10:03:08;;;;;;;;;;;1.30;99.90;;;;;;5057309;28;19912;-75
2021/11/26 10:05:34;;;;;;;;;;;1.30;99.90;;;;;;5053499;28;20431;-74
2021/11/26 10:08:00;;;;;;;;;;;1.30;99.90;;;;;;5051173;28;19920;-75
2021/11/26 10:10:28;;;;;;;;;;;1.30;99.90;;;;;;5052461;28;19982;-75
2021/11/26 10:13:02;;;;;;;;;;;1.30;99.90;;;;;;5052458;28;20388;-73
2021/11/26 10:15:32;;;;;;;;;;;1.30;99.90;;;;;;5052692;28;20349;-74
2021/11/26 10:18:04;;;;;;;;;;;1.10;99.90;;;;;;5051783;28;20143;-74
2021/11/26 10:20:29;;;;;;;;;;;1.20;99.90;;;;;;5050910;28;19917;-74
2021/11/26 10:22:55;;;;;;;;;;;1.30;99.90;;;;;;5048774;28;20394;-75
2021/11/26 10:25:21;;;;;;;;;;;1.40;99.90;;;;;;5042012;28;19997;-75
2021/11/26 10:27:51;;;;;;;;;;;1.50;99.90;;;;;;5047640;28;20388;-75
2021/11/26 10:30:31;;;;;;;;;;;1.70;99.90;;;;;;5049067;28;19909;-75
2021/11/26 10:32:57;;;;;;;;;;;1.70;99.90;;;;;;5049588;28;19923;-75
2021/11/26 10:35:27;;;;;;;;;;;1.60;99.90;;;;;;5048276;28;19909;-75
2021/11/26 10:38:01;;;;;;;;;;;1.80;99.90;;;;;;5043426;28;19909;-75
2021/11/26 10:40:27;;;;;;;;;;;1.80;99.90;;;;;;5046295;28;19913;-75
2021/11/26 10:42:54;;;;;;;;;;;1.70;99.90;;;;;;5052021;28;20311;-75
2021/11/26 10:45:40;;;;;;;;;;;1.70;99.90;;;;;;5051156;28;20003;-75
2021/11/26 10:48:57;;;;;;;;;;;1.70;99.90;;;;;;5051771;28;20254;-75
2021/11/26 10:51:04;;;;;;;;;;;1.70;99.90;;;;;;5047369;28;19908;-75
2021/11/26 10:59:01;;;;;;;;;;;1.40;99.90;;;;;;5051633;28;19932;-75
2021/11/26 11:01:26;;;;;;;;;;;1.40;99.90;;;;;;5050035;28;19999;-74
2021/11/26 11:03:53;;;;;;;;;;;1.30;99.90;;;;;;5050763;28;20483;-75
2021/11/26 11:06:20;;;;;;;;;;;1.20;99.90;;;;;;5054294;28;20623;-75
2021/11/26 11:08:45;;;;;;;;;;;1.30;99.90;;;;;;5049860;28;19948;-75
2021/11/26 11:11:11;;;;;;;;;;;1.40;99.90;;;;;;5056138;28;20324;-75
2021/11/26 11:13:36;;;;;;;;;;;1.50;99.90;;;;;;5055131;28;19908;-75
2021/11/26 11:16:07;;;;;;;;;;;1.50;99.90;;;;;;5054591;28;19915;-76
2021/11/26 11:18:33;;;;;;;;;;;1.50;99.90;;;;;;5054127;28;19915;-74
2021/11/26 11:20:58;;;;;;;;;;;1.60;99.90;;;;;;5054123;28;19912;-75
2021/11/26 11:23:24;;;;;;;;;;;1.50;99.90;;;;;;5053287;28;20270;-75
2021/11/26 11:25:50;;;;;;;;;;;1.60;99.90;;;;;;5052903;28;19917;-76
2021/11/26 11:28:15;;;;;;;;;;;1.70;99.90;;;;;;5051013;28;19920;-75
2021/11/26 11:30:41;;;;;;;;;;;1.70;99.90;;;;;;5051213;28;20408;-76
2021/11/26 11:33:07;;;;;;;;;;;1.70;99.90;;;;;;5050673;28;19916;-76
2021/11/26 11:35:34;;;;;;;;;;;1.70;99.90;;;;;;5050907;28;19913;-76
2021/11/26 11:38:00;;;;;;;;;;;1.70;99.90;;;;;;5040610;28;19913;-75
2021/11/26 11:40:31;;;;;;;;;;;1.60;99.90;;;;;;5049681;28;20304;-75
2021/11/26 11:43:32;;;;;;;;;;;1.70;99.90;;;;;;5051066;28;19909;-76
2021/11/26 11:45:59;;;;;;;;;;;1.70;99.90;;;;;;4992772;28;19921;-76
2021/11/26 11:48:45;;;;;;;;;;;1.70;99.90;;;;;;5043291;28;19996;-76
2021/11/26 11:51:19;;;;;;;;;;;1.70;99.90;;;;;;5050642;28;19920;-76
2021/11/26 11:53:45;;;;;;;;;;;1.70;99.90;;;;;;5049042;28;19915;-76
2021/11/26 11:56:19;;;;;;;;;;;1.80;99.90;;;;;;5050600;28;19909;-76
2021/11/26 11:58:55;;;;;;;;;;;1.90;99.90;;;;;;5051101;28;19996;-76
2021/11/26 12:01:28;;;;;;;;;;;1.80;99.90;;;;;;5050848;28;19909;-76
2021/11/26 12:03:55;;;;;;;;;;;1.90;99.90;;;;;;5049897;28;20265;-76
2021/11/26 12:06:21;;;;;;;;;;;1.90;99.90;;;;;;5051164;28;19909;-76
2021/11/26 12:08:48;;;;;;;;;;;1.90;99.90;;;;;;5050614;28;19919;-76
2021/11/26 12:11:24;;;;;;;;;;;1.80;99.90;;;;;;5051098;28;19913;-76
2021/11/26 12:14:01;;;;;;;;;;;1.80;99.90;;;;;;5049499;28;19913;-77
2021/11/26 12:16:28;;;;;;;;;;;1.70;99.90;;;;;;5051521;28;19959;-75
2021/11/26 12:18:54;;;;;;;;;;;1.70;99.90;;;;;;5051673;28;19909;-77
2021/11/26 12:21:21;;;;;;;;;;;1.60;99.90;;;;;;5048823;28;19921;-76
2021/11/26 12:24:10;;;;;;;;;;;1.60;99.90;;;;;;5051174;28;19916;-77
2021/11/26 12:26:42;;;;;;;;;;;1.60;99.90;;;;;;5051538;28;19927;-77
2021/11/26 12:29:11;;;;;;;;;;;1.60;99.90;;;;;;5051812;28;20338;-77
2021/11/26 12:31:37;;;;;;;;;;;1.70;99.90;;;;;;5051181;28;20288;-77
2021/11/26 12:34:08;;;;;;;;;;;1.70;99.90;;;;;;5051800;28;19909;-77
2021/11/26 12:36:42;;;;;;;;;;;1.70;99.90;;;;;;5050922;28;19948;-76
2021/11/26 12:39:13;;;;;;;;;;;1.70;99.90;;;;;;5051283;28;19912;-77
2021/11/26 12:41:40;;;;;;;;;;;1.70;99.90;;;;;;5055298;28;19958;-75
2021/11/26 12:44:07;;;;;;;;;;;1.60;99.90;;;;;;5056885;28;19944;-77
2021/11/26 12:46:37;;;;;;;;;;;1.70;99.90;;;;;;5058014;28;19913;-77
2021/11/26 12:51:45;;;;;;;;;;;1.80;99.90;;;;;;5058496;28;19908;-77
2021/11/26 12:54:40;;;;;;;;;;;1.90;99.90;;;;;;5055621;28;19920;-77
2021/11/26 12:57:07;;;;;;;;;;;1.90;99.90;;;;;;5041489;28;20394;-77
2021/11/26 12:59:42;;;;;;;;;;;1.90;99.90;;;;;;5054830;28;19916;-77
2021/11/26 13:02:09;;;;;;;;;;;1.90;99.90;;;;;;5049521;28;19910;-77
2021/11/26 13:04:55;;;;;;;;;;;1.90;99.90;;;;;;5054542;28;20380;-77
2021/11/26 13:07:23;;;;;;;;;;;1.90;99.90;;;;;;5054509;28;20361;-77
2021/11/26 13:09:51;;;;;;;;;;;1.90;99.90;;;;;;5054474;28;19909;-77
2021/11/26 13:12:18;;;;;;;;;;;1.90;99.90;;;;;;5054810;28;20013;-77
2021/11/26 13:14:48;;;;;;;;;;;1.90;99.90;;;;;;5053716;28;19909;-76
2021/11/26 13:17:15;;;;;;;;;;;1.90;99.90;;;;;;5052088;28;19909;-78
2021/11/26 13:19:41;;;;;;;;;;;1.90;99.90;;;;;;5053410;28;19909;-76
2021/11/26 13:22:07;;;;;;;;;;;2.10;99.90;;;;;;5053531;28;19999;-77
2021/11/26 13:24:33;;;;;;;;;;;2.30;99.90;;;;;;5052809;28;19958;-76
2021/11/26 13:27:01;;;;;;;;;;;2.50;99.90;;;;;;5053291;28;19921;-78
2021/11/26 13:29:27;;;;;;;;;;;2.60;99.90;;;;;;5053482;28;19908;-77
2021/11/26 13:31:56;;;;;;;;;;;2.50;99.90;;;;;;5053251;28;19958;-76
2021/11/26 13:34:22;;;;;;;;;;;2.50;99.90;;;;;;5053021;28;19913;-76
2021/11/26 13:36:47;;;;;;;;;;;2.60;99.90;;;;;;5051417;28;19923;-76
2021/11/26 13:39:15;;;;;;;;;;;2.80;99.90;;;;;;5047161;28;19920;-77
2021/11/26 13:41:42;;;;;;;;;;;3.10;99.90;;;;;;5053126;28;20280;-77
2021/11/26 13:44:19;;;;;;;;;;;3.40;99.90;;;;;;5052989;28;19909;-76
2021/11/26 13:46:46;;;;;;;;;;;3.40;99.90;;;;;;5052013;28;19908;-77
2021/11/26 13:49:13;;;;;;;;;;;3.40;99.90;;;;;;5052354;28;19917;-76
2021/11/26 13:51:45;;;;;;;;;;;3.00;99.90;;;;;;5052752;28;19908;-77
2021/11/26 13:54:11;;;;;;;;;;;3.00;99.90;;;;;;5052430;28;19913;-76
2021/11/26 13:56:38;;;;;;;;;;;3.00;99.90;;;;;;5052952;28;20369;-77
2021/11/26 13:59:05;;;;;;;;;;;3.00;99.90;;;;;;5052891;28;19909;-77
2021/11/26 14:01:33;;;;;;;;;;;3.00;99.90;;;;;;5053432;28;19955;-76
2021/11/26 14:04:00;;;;;;;;;;;2.80;99.90;;;;;;5053268;28;19909;-77
2021/11/26 14:06:25;;;;;;;;;;;2.80;99.90;;;;;;5053471;28;19909;-77
2021/11/26 14:08:52;;;;;;;;;;;2.80;99.90;;;;;;5053564;28;19912;-75
2021/11/26 14:11:48;;;;;;;;;;;2.80;99.90;;;;;;5053971;28;20297;-77
2021/11/26 14:14:17;;;;;;;;;;;2.80;99.90;;;;;;5050527;28;19935;-75
2021/11/26 14:16:50;;;;;;;;;;;2.70;99.90;;;;;;5056484;28;19912;-77
2021/11/26 14:19:29;;;;;;;;;;;2.60;99.90;;;;;;5056366;28;19909;-77
2021/11/26 14:21:56;;;;;;;;;;;2.60;99.90;;;;;;5056746;28;20301;-77
2021/11/26 14:24:31;;;;;;;;;;;2.50;99.90;;;;;;5057158;28;19919;-77
2021/11/26 14:26:56;;;;;;;;;;;2.40;99.90;;;;;;5057972;28;19952;-77
2021/11/26 14:29:22;;;;;;;;;;;2.40;99.90;;;;;;5057055;28;20349;-76
2021/11/26 14:31:47;;;;;;;;;;;2.30;99.90;;;;;;5052349;28;20392;-76